createdAt,value
2023-02-27T00:00:59.950Z,0.60
2023-02-27T00:03:27.570Z,0.60
2023-02-27T00:05:56.295Z,0.60
2023-02-27T00:08:24.035Z,0.50
2023-02-27T00:10:51.001Z,0.50
2023-02-27T00:13:18.124Z,0.50
2023-02-27T00:15:50.339Z,0.50
2023-02-27T00:18:17.471Z,0.50
2023-02-27T00:20:44.342Z,0.60
2023-02-27T00:23:11.262Z,0.50
2023-02-27T00:25:38.137Z,0.60
2023-02-27T00:28:05.048Z,0.50
2023-02-27T00:30:32.279Z,0.50
2023-02-27T00:32:59.343Z,0.50
2023-02-27T00:35:26.272Z,0.50
2023-02-27T00:37:53.164Z,0.40
2023-02-27T00:40:20.228Z,0.50
2023-02-27T00:42:48.691Z,0.40
2023-02-27T00:45:16.093Z,0.40
2023-02-27T00:47:43.119Z,0.40
2023-02-27T00:50:10.635Z,0.40
2023-02-27T00:52:37.505Z,0.40
2023-02-27T00:55:04.919Z,0.40
2023-02-27T00:57:31.985Z,0.40
2023-02-27T00:59:59.122Z,0.40
2023-02-27T01:02:26.323Z,0.40
2023-02-27T01:04:53.242Z,0.40
2023-02-27T01:07:20.370Z,0.40
2023-02-27T01:09:47.322Z,0.40
2023-02-27T01:12:14.437Z,0.30
2023-02-27T01:14:42.152Z,0.30
2023-02-27T01:17:09.125Z,0.30
2023-02-27T01:19:36.095Z,0.20
2023-02-27T01:22:03.127Z,0.20
2023-02-27T01:24:30.049Z,0.40
2023-02-27T01:26:57.008Z,0.30
2023-02-27T01:29:23.908Z,0.30
2023-02-27T01:31:50.887Z,0.20
2023-02-27T01:34:18.287Z,0.30
2023-02-27T01:36:45.178Z,0.20
2023-02-27T01:39:12.196Z,0.20
2023-02-27T01:41:39.226Z,0.30
2023-02-27T01:44:09.325Z,0.20
2023-02-27T01:46:36.512Z,0.30
2023-02-27T01:49:03.307Z,0.10
2023-02-27T01:51:37.095Z,0.10
2023-02-27T01:54:07.369Z,0.10
2023-02-27T01:56:34.608Z,0.10
2023-02-27T01:59:07.637Z,0.10
2023-02-27T02:01:36.072Z,0.10
2023-02-27T02:04:20.050Z,0.10
2023-02-27T02:06:50.523Z,0.10
2023-02-27T02:09:19.175Z,0.10
2023-02-27T02:11:46.039Z,0.10
2023-02-27T02:14:13.009Z,0.20
2023-02-27T02:17:04.747Z,0.10
2023-02-27T02:19:53.249Z,0.10
2023-02-27T02:22:38.982Z,0.10
2023-02-27T02:25:30.512Z,0.10
2023-02-27T02:28:08.465Z,0.10
2023-02-27T02:30:55.587Z,0.00
2023-02-27T03:09:24.773Z,-0.20
2023-02-27T03:24:15.266Z,-0.10
2023-02-27T03:58:32.369Z,-0.30
2023-02-27T04:04:15.807Z,-0.30
2023-02-27T04:13:46.180Z,-0.30
2023-02-27T04:16:57.545Z,-0.30
2023-02-27T04:53:55.781Z,-0.60
2023-02-27T05:02:42.328Z,-0.60
2023-02-27T05:18:07.494Z,-0.70
2023-02-27T05:21:03.425Z,-0.70
2023-02-27T05:24:15.738Z,-0.80
2023-02-27T05:27:25.244Z,-0.80
2023-02-27T05:33:41.279Z,-0.80
2023-02-27T05:39:53.552Z,-1.20
2023-02-27T05:42:51.552Z,-0.90
2023-02-27T05:45:42.530Z,-0.80
2023-02-27T05:48:35.972Z,-0.60
2023-02-27T05:51:32.292Z,-0.90
2023-02-27T05:54:43.209Z,-1.00
2023-02-27T05:57:51.173Z,-1.20
2023-02-27T06:03:41.123Z,-0.90
2023-02-27T06:06:33.497Z,-0.90
2023-02-27T06:09:23.240Z,-0.70
2023-02-27T06:12:13.496Z,-0.90
2023-02-27T06:15:03.199Z,-1.10
2023-02-27T06:17:52.367Z,-0.80
2023-02-27T06:20:40.433Z,-1.10
2023-02-27T06:23:26.678Z,-0.80
2023-02-27T06:26:14.472Z,-0.80
2023-02-27T06:29:01.627Z,-0.70
2023-02-27T06:31:47.532Z,-0.80
2023-02-27T06:34:37.677Z,-0.40
2023-02-27T06:37:25.227Z,-0.30
2023-02-27T06:40:14.299Z,-0.40
2023-02-27T06:42:59.926Z,-0.10
2023-02-27T06:45:45.353Z,0.00
2023-02-27T06:48:30.746Z,0.20
2023-02-27T06:51:16.561Z,0.30
2023-02-27T06:54:01.996Z,0.40
2023-02-27T06:56:47.993Z,0.80
2023-02-27T06:59:33.510Z,0.80
2023-02-27T07:02:19.086Z,1.00
2023-02-27T07:05:07.944Z,1.10
2023-02-27T07:07:53.737Z,1.00
2023-02-27T07:10:40.101Z,1.00
2023-02-27T07:13:25.560Z,1.20
2023-02-27T07:16:11.567Z,1.20
2023-02-27T07:18:57.072Z,1.30
2023-02-27T07:21:42.539Z,1.20
2023-02-27T07:24:28.293Z,1.20
2023-02-27T07:27:14.111Z,1.40
2023-02-27T07:30:00.334Z,1.20
2023-02-27T07:33:12.375Z,1.40
2023-02-27T07:35:58.791Z,1.40
2023-02-27T07:38:44.349Z,1.30
2023-02-27T07:41:31.229Z,1.40
2023-02-27T07:44:16.934Z,1.50
2023-02-27T07:47:04.852Z,1.70
2023-02-27T07:49:50.584Z,1.80
2023-02-27T07:52:36.267Z,2.00
2023-02-27T07:55:21.985Z,1.90
2023-02-27T07:58:09.870Z,1.80
2023-02-27T08:00:55.574Z,2.00
2023-02-27T08:03:40.976Z,2.00
2023-02-27T08:06:27.126Z,2.20
2023-02-27T08:09:13.067Z,2.20
2023-02-27T08:11:59.529Z,2.30
2023-02-27T08:14:45.460Z,2.40
2023-02-27T08:17:31.167Z,2.50
2023-02-27T08:20:17.202Z,2.70
2023-02-27T08:23:02.962Z,2.90
2023-02-27T08:25:48.926Z,3.00
2023-02-27T08:28:34.318Z,3.00
2023-02-27T08:31:20.457Z,3.20
2023-02-27T08:34:10.275Z,3.20
2023-02-27T08:36:56.553Z,3.20
2023-02-27T08:39:41.884Z,3.20
2023-02-27T08:42:27.770Z,3.30
2023-02-27T08:45:13.266Z,3.40
2023-02-27T08:47:59.200Z,3.70
2023-02-27T08:50:44.848Z,3.80
2023-02-27T08:53:30.241Z,4.00
2023-02-27T08:56:15.913Z,4.10
2023-02-27T08:59:02.562Z,4.30
2023-02-27T09:01:34.440Z,4.50
2023-02-27T09:04:03.689Z,4.70
2023-02-27T09:06:32.289Z,4.80
2023-02-27T09:08:59.587Z,5.00
2023-02-27T09:11:27.129Z,5.10
2023-02-27T09:13:54.747Z,5.30
2023-02-27T09:16:22.521Z,5.50
2023-02-27T09:18:50.686Z,5.60
2023-02-27T09:21:18.572Z,5.70
2023-02-27T09:23:45.477Z,5.90
2023-02-27T09:26:12.578Z,5.80
2023-02-27T09:28:42.910Z,5.90
2023-02-27T09:31:11.049Z,5.90
2023-02-27T09:33:38.802Z,5.90
2023-02-27T09:36:07.412Z,5.80
2023-02-27T09:38:35.540Z,5.50
2023-02-27T09:41:03.520Z,5.20
2023-02-27T09:43:46.619Z,4.90
2023-02-27T09:46:22.644Z,4.60
2023-02-27T09:48:56.139Z,4.30
2023-02-27T09:51:23.521Z,4.10
2023-02-27T09:53:53.973Z,3.90
2023-02-27T09:56:29.366Z,3.80
2023-02-27T09:59:14.977Z,3.70
2023-02-27T10:02:00.575Z,3.60
2023-02-27T10:04:49.397Z,3.50
2023-02-27T10:07:40.360Z,3.50
2023-02-27T10:10:13.146Z,3.50
2023-02-27T10:12:49.084Z,3.40
2023-02-27T10:15:25.342Z,3.40
2023-02-27T10:17:59.849Z,3.40
2023-02-27T10:20:38.415Z,3.40
2023-02-27T10:23:13.621Z,3.40
2023-02-27T10:25:46.555Z,3.50
2023-02-27T10:28:16.471Z,3.70
2023-02-27T10:30:52.501Z,3.50
2023-02-27T10:33:28.126Z,3.60
2023-02-27T10:35:55.605Z,3.60
2023-02-27T10:38:29.278Z,3.70
2023-02-27T10:40:58.708Z,3.70
2023-02-27T10:43:25.704Z,3.80
2023-02-27T10:45:54.385Z,3.70
2023-02-27T10:48:23.106Z,3.70
2023-02-27T10:50:52.114Z,3.70
2023-02-27T10:53:28.466Z,3.80
2023-02-27T10:56:05.366Z,3.80
2023-02-27T10:58:35.693Z,3.80
2023-02-27T11:01:08.929Z,3.90
2023-02-27T11:03:39.940Z,4.00
2023-02-27T11:06:25.315Z,4.20
2023-02-27T11:09:10.530Z,4.50
2023-02-27T11:11:37.998Z,4.80
2023-02-27T11:14:19.798Z,5.00
2023-02-27T11:16:55.131Z,5.20
2023-02-27T11:19:39.305Z,5.30
2023-02-27T11:22:15.071Z,5.50
2023-02-27T11:24:42.284Z,5.50
2023-02-27T11:27:22.981Z,5.50
2023-02-27T11:29:57.957Z,5.40
2023-02-27T11:32:43.675Z,5.40
2023-02-27T11:35:29.564Z,5.20
2023-02-27T11:38:02.058Z,5.00
2023-02-27T11:40:35.098Z,4.90
2023-02-27T11:43:14.936Z,4.90
2023-02-27T11:46:13.313Z,4.80
2023-02-27T11:48:46.181Z,4.80
2023-02-27T11:51:33.141Z,4.70
2023-02-27T11:54:25.777Z,4.80
2023-02-27T11:57:06.208Z,4.90
2023-02-27T11:59:40.356Z,4.90
2023-02-27T12:02:14.980Z,5.00
2023-02-27T12:04:44.982Z,5.20
2023-02-27T12:07:26.000Z,5.40
2023-02-27T12:10:27.830Z,5.50
2023-02-27T12:13:21.757Z,5.60
2023-02-27T12:16:04.316Z,5.80
2023-02-27T12:18:35.583Z,5.90
2023-02-27T12:21:05.420Z,5.90
2023-02-27T12:23:37.698Z,5.80
2023-02-27T12:26:26.506Z,5.70
2023-02-27T12:29:19.828Z,5.70
2023-02-27T12:32:02.964Z,5.60
2023-02-27T12:34:41.807Z,5.60
2023-02-27T12:37:15.236Z,5.80
2023-02-27T12:39:44.787Z,5.90
2023-02-27T12:42:36.274Z,5.90
2023-02-27T12:45:12.332Z,6.10
2023-02-27T12:47:51.701Z,6.10
2023-02-27T12:50:27.510Z,6.10
2023-02-27T12:53:16.682Z,6.20
2023-02-27T12:55:52.723Z,6.20
2023-02-27T12:58:40.349Z,6.10
2023-02-27T13:01:29.562Z,6.00
2023-02-27T13:04:05.618Z,6.10
2023-02-27T13:07:18.994Z,6.10
2023-02-27T13:10:15.491Z,6.20
2023-02-27T13:12:56.668Z,6.00
2023-02-27T13:15:36.706Z,6.00
2023-02-27T13:18:22.051Z,6.10
2023-02-27T13:20:56.814Z,6.20
2023-02-27T13:23:33.588Z,6.20
2023-02-27T13:26:04.798Z,6.10
2023-02-27T13:28:32.397Z,6.10
2023-02-27T13:31:04.713Z,6.00
2023-02-27T13:33:55.344Z,5.90
2023-02-27T13:36:30.481Z,5.90
2023-02-27T13:38:57.956Z,5.80
2023-02-27T13:41:24.846Z,5.80
2023-02-27T13:43:59.522Z,6.00
2023-02-27T13:46:33.332Z,6.00
2023-02-27T13:49:06.082Z,6.10
2023-02-27T13:51:35.894Z,6.10
2023-02-27T13:54:15.131Z,6.30
2023-02-27T13:56:47.919Z,6.40
2023-02-27T13:59:28.985Z,6.40
2023-02-27T14:02:02.999Z,6.40
2023-02-27T14:04:34.103Z,6.40
2023-02-27T14:07:09.334Z,6.30
2023-02-27T14:09:41.123Z,6.20
2023-02-27T14:12:28.887Z,6.20
2023-02-27T14:14:58.824Z,6.30
2023-02-27T14:17:46.730Z,6.40
2023-02-27T14:20:16.886Z,6.40
2023-02-27T14:23:15.414Z,6.50
2023-02-27T14:25:54.910Z,6.40
2023-02-27T14:28:55.744Z,6.40
2023-02-27T14:31:26.733Z,6.40
2023-02-27T14:33:55.976Z,6.30
2023-02-27T14:36:38.124Z,6.30
2023-02-27T14:39:05.136Z,6.40
2023-02-27T14:41:50.029Z,6.40
2023-02-27T14:44:20.249Z,6.50
2023-02-27T14:46:47.431Z,6.50
2023-02-27T14:49:22.144Z,6.60
2023-02-27T14:51:50.651Z,6.50
2023-02-27T14:54:21.303Z,6.50
2023-02-27T14:57:08.517Z,6.50
2023-02-27T14:59:45.106Z,6.40
2023-02-27T15:02:34.623Z,6.30
2023-02-27T15:05:01.824Z,6.30
2023-02-27T15:07:32.023Z,6.20
2023-02-27T15:10:04.837Z,6.20
2023-02-27T15:12:36.756Z,6.10
2023-02-27T15:15:06.229Z,6.10
2023-02-27T15:17:48.388Z,6.10
2023-02-27T15:20:32.194Z,6.00
2023-02-27T15:23:01.861Z,5.90
2023-02-27T15:25:30.841Z,5.90
2023-02-27T15:28:02.863Z,5.90
2023-02-27T15:30:30.827Z,5.90
2023-02-27T15:32:58.375Z,5.90
2023-02-27T15:35:37.127Z,5.80
2023-02-27T15:38:04.291Z,5.80
2023-02-27T15:40:33.327Z,5.80
2023-02-27T15:43:01.248Z,5.80
2023-02-27T15:45:34.683Z,5.80
2023-02-27T15:48:02.936Z,5.80
2023-02-27T15:50:47.223Z,5.70
2023-02-27T15:53:18.957Z,5.70
2023-02-27T15:56:01.969Z,5.60
2023-02-27T15:58:34.719Z,5.60
2023-02-27T16:01:13.815Z,5.50
2023-02-27T16:03:45.282Z,5.40
2023-02-27T16:06:18.201Z,5.30
2023-02-27T16:08:54.698Z,5.30
2023-02-27T16:11:24.545Z,5.20
2023-02-27T16:13:53.832Z,5.10
2023-02-27T16:16:26.967Z,5.10
2023-02-27T16:18:58.252Z,4.90
2023-02-27T16:21:37.637Z,4.90
2023-02-27T16:24:32.008Z,4.70
2023-02-27T16:27:00.346Z,4.70
2023-02-27T16:29:36.640Z,4.70
2023-02-27T16:32:07.113Z,4.60
2023-02-27T16:34:46.403Z,4.60
2023-02-27T16:37:31.098Z,4.70
2023-02-27T16:39:58.109Z,4.60
2023-02-27T16:42:25.043Z,4.60
2023-02-27T16:44:52.111Z,4.60
2023-02-27T16:47:18.968Z,4.60
2023-02-27T16:49:49.614Z,4.60
2023-02-27T16:52:16.762Z,4.60
2023-02-27T16:54:43.801Z,4.60
2023-02-27T16:57:11.272Z,4.60
2023-02-27T16:59:41.136Z,4.60
2023-02-27T17:02:13.508Z,4.60
2023-02-27T17:04:44.255Z,4.70
2023-02-27T17:07:18.199Z,4.70
2023-02-27T17:09:48.201Z,4.70
2023-02-27T17:12:15.528Z,4.70
2023-02-27T17:14:45.858Z,4.70
2023-02-27T17:17:13.642Z,4.70
2023-02-27T17:19:40.970Z,4.70
2023-02-27T17:22:08.021Z,4.70
2023-02-27T17:24:35.087Z,4.70
2023-02-27T17:27:02.366Z,4.70
2023-02-27T17:29:29.748Z,4.70
2023-02-27T17:31:57.674Z,4.70
2023-02-27T17:34:25.011Z,4.70
2023-02-27T17:36:53.409Z,4.70
2023-02-27T17:39:22.838Z,4.70
2023-02-27T17:41:53.068Z,4.60
2023-02-27T17:44:23.995Z,4.70
2023-02-27T17:46:51.032Z,4.60
2023-02-27T17:49:18.233Z,4.70
2023-02-27T17:51:45.305Z,4.70
2023-02-27T17:54:12.316Z,4.80
2023-02-27T17:56:39.409Z,4.60
2023-02-27T17:59:08.199Z,4.70
2023-02-27T18:01:36.867Z,4.70
2023-02-27T18:04:05.067Z,4.70
2023-02-27T18:06:32.142Z,4.70
2023-02-27T18:08:59.429Z,4.70
2023-02-27T18:11:26.536Z,4.70
2023-02-27T18:13:53.492Z,4.70
2023-02-27T18:16:21.977Z,4.60
2023-02-27T18:18:49.031Z,4.60
2023-02-27T18:21:20.285Z,4.60
2023-02-27T18:23:47.989Z,4.70
2023-02-27T18:26:29.085Z,4.60
2023-02-27T18:29:04.840Z,4.60
2023-02-27T18:31:38.812Z,4.60
2023-02-27T18:34:06.222Z,4.60
2023-02-27T18:36:33.382Z,4.60
2023-02-27T18:39:01.043Z,4.60
2023-02-27T18:41:29.412Z,4.60
2023-02-27T18:43:56.709Z,4.60
2023-02-27T18:46:23.768Z,4.60
2023-02-27T18:48:51.083Z,4.60
2023-02-27T18:51:18.665Z,4.50
2023-02-27T18:53:48.174Z,4.50
2023-02-27T18:56:18.067Z,4.50
2023-02-27T18:58:45.985Z,4.60
2023-02-27T19:01:26.551Z,4.60
2023-02-27T19:04:00.332Z,4.60
2023-02-27T19:06:28.492Z,4.60
2023-02-27T19:08:55.929Z,4.60
2023-02-27T19:11:23.822Z,4.60
2023-02-27T19:13:51.276Z,4.60
2023-02-27T19:16:18.389Z,4.50
2023-02-27T19:18:45.314Z,4.50
2023-02-27T19:21:12.408Z,4.50
2023-02-27T19:23:39.559Z,4.60
2023-02-27T19:26:07.187Z,4.60
2023-02-27T19:28:34.269Z,4.60
2023-02-27T19:31:09.927Z,4.70
2023-02-27T19:33:37.167Z,4.70
2023-02-27T19:36:12.788Z,4.70
2023-02-27T19:38:40.073Z,4.60
2023-02-27T19:41:10.022Z,4.70
2023-02-27T19:43:38.629Z,4.60
2023-02-27T19:46:12.249Z,4.60
2023-02-27T19:48:39.679Z,4.60
2023-02-27T19:51:09.607Z,4.60
2023-02-27T19:53:38.734Z,4.50
2023-02-27T19:56:08.135Z,4.50
2023-02-27T19:58:36.399Z,4.50
2023-02-27T20:01:04.480Z,4.50
2023-02-27T20:03:31.873Z,4.40
2023-02-27T20:05:58.973Z,4.40
2023-02-27T20:08:26.020Z,4.40
2023-02-27T20:10:57.842Z,4.40
2023-02-27T20:13:25.259Z,4.40
2023-02-27T20:16:05.289Z,4.30
2023-02-27T20:18:33.548Z,4.10
2023-02-27T20:21:29.481Z,4.20
2023-02-27T20:23:58.089Z,4.10
2023-02-27T20:26:37.191Z,4.10
2023-02-27T20:29:08.306Z,4.00
2023-02-27T20:31:38.255Z,3.90
2023-02-27T20:34:06.556Z,3.80
2023-02-27T20:36:35.632Z,3.70
2023-02-27T20:39:07.040Z,3.70
2023-02-27T22:15:43.203Z,3.10
2023-02-27T22:18:16.626Z,3.20
2023-02-27T22:20:48.194Z,3.30
2023-02-27T22:23:22.275Z,3.30
2023-02-27T22:26:05.908Z,3.30
2023-02-27T22:28:40.163Z,3.30
2023-02-27T22:31:15.189Z,3.40
2023-02-27T22:33:51.676Z,3.20
2023-02-27T22:45:18.515Z,3.10
2023-02-27T22:47:58.348Z,3.00
2023-02-27T22:50:37.722Z,2.80
2023-02-27T22:59:15.207Z,2.60
2023-02-27T23:01:46.492Z,2.50
2023-02-27T23:04:26.541Z,2.50
2023-02-27T23:09:46.081Z,2.30
2023-02-27T23:12:15.364Z,2.20
2023-02-27T23:14:51.955Z,2.20
2023-02-27T23:17:21.793Z,2.10
2023-02-27T23:19:53.032Z,2.10
2023-02-27T23:22:22.536Z,2.00
2023-02-27T23:24:56.058Z,2.10
2023-02-27T23:27:27.314Z,2.00
2023-02-27T23:32:55.048Z,2.00
2023-02-27T23:35:36.382Z,2.00
2023-02-27T23:38:04.114Z,1.90
2023-02-27T23:40:31.167Z,1.80
2023-02-27T23:42:58.121Z,1.90
2023-02-27T23:45:25.270Z,1.80
2023-02-27T23:47:58.545Z,1.70
2023-02-27T23:50:30.393Z,1.80
2023-02-27T23:52:59.177Z,1.80
2023-02-27T23:55:29.463Z,1.80
2023-02-27T23:57:58.492Z,1.90
